Aérodrome :
LOGIN :

S'inscrire | Disclaimer

   EN    FR    IT 

 










Légende :    VFR   VFR Marginal   IFR   IFR Intensif   IFR Très Intensif
Visi : 
Plafond : 
>= 8 km
>= 3000ft
5 à 8 km
1000 à 3000 ft
1500m à 5 km
500 à 1000 ft
800 à 1500m
200 à 500 ft
< 800m
< 200 ft
Symboles :   Orages  Brouillard  Fortes neiges  Fortes précipitations  Vent > 20 kt
SIGMETs :   Divers  Orages  Givrage  Turbulence  Onde Orograph.  Cendres Volcan.







- Altitude de l'aérodrome : 2776 ft
- Code IATA : VLL


LEVD - Valladolid

DERNIER METAR :
  • 251130Z 08008KT CAVOK 28/10 Q1018

METARs EXPIRÉS :
  • 251100Z 07006KT 040V110 CAVOK 27/12 Q1019
  • 251030Z 08008KT 030V120 CAVOK 26/11 Q1019
  • 251000Z 08006KT CAVOK 25/11 Q1019
  • 250930Z 07005KT 030V110 CAVOK 24/12 Q1019
  • 250900Z 09005KT 050V130 CAVOK 23/12 Q1019

TAF TAF LEVD
Valide du 25 à 12h jusqu'au 26 à 12h UTC


251100Z 2512/2612 VRB05KT CAVOK TX31/2516Z TN15/2605Z
TEMPO 2514/2521 27010KT
TEMPO 2514/2519 FEW040TCU
PROB30
TEMPO 2515/2519 VRB15G25KT 3000 TS SHRA SCT040CB
Pas de NOTAMs connus pour ce terrain.
1 SIGMET publié pour la FIR Madrid (LECM) :
 
Orages noyés dans la masse
LECM SIGMET 5 VALID 251100/251400 LEVA
LECM MADRID FIR/UIR EMBD TS FCST WI N4410 W013 - N43 W00840 - N4330 W00750 - N4450 W01010 - N4450 W01250 - N4410 W013 TOP FL350 MOV NW 20KT NC=



MET'MAP, la Météo Aéronautique d'un coup d'oeil ! - Copyright ORBIFLY Décembre 2007 - Disclaimer

ORBIFLY MET'MAP TEAM :

Programmation & Développement : Alexandra Zaïnal
Conception & Développement : Baudouin d'Aumeries
Co-Programmation & Développement : Marc-Olivier Méhu
Soutien technique & logistique : Manuel Goepfert

Contact : metmap@orbifly.com




SOURCES & CREDITS :

   NOAA